createdAt,value
2022-09-07T00:01:18.882Z,87.61
2022-09-07T00:03:46.967Z,87.76
2022-09-07T00:06:15.756Z,87.27
2022-09-07T00:08:45.238Z,87.25
2022-09-07T00:11:16.450Z,87.28
2022-09-07T00:13:47.344Z,87.12
2022-09-07T00:16:19.849Z,87.45
2022-09-07T00:18:48.815Z,87.02
2022-09-07T00:21:18.999Z,87.16
2022-09-07T00:23:50.351Z,87.58
2022-09-07T00:26:21.407Z,87.58
2022-09-07T00:28:50.396Z,87.40
2022-09-07T00:31:22.166Z,87.71
2022-09-07T00:33:52.507Z,87.60
2022-09-07T00:36:23.394Z,87.60
2022-09-07T00:38:53.479Z,87.99
2022-09-07T00:41:23.463Z,88.37
2022-09-07T00:43:55.013Z,87.94
2022-09-07T00:46:26.233Z,88.06
2022-09-07T00:49:02.094Z,87.71
2022-09-07T00:51:38.347Z,87.95
2022-09-07T00:54:13.822Z,88.26
2022-09-07T00:56:45.251Z,87.60
2022-09-07T00:59:18.711Z,87.75
2022-09-07T01:01:47.451Z,87.69
2022-09-07T01:04:17.165Z,87.88
2022-09-07T01:06:45.670Z,88.15
2022-09-07T01:09:20.560Z,88.27
2022-09-07T01:11:51.060Z,87.88
2022-09-07T01:14:27.577Z,87.97
2022-09-07T01:17:10.141Z,88.09
2022-09-07T01:20:49.501Z,88.76
2022-09-07T01:24:24.524Z,88.77
2022-09-07T01:27:55.554Z,89.10
2022-09-07T01:30:25.955Z,88.66
2022-09-07T01:33:31.884Z,88.71
2022-09-07T01:36:17.477Z,88.79
2022-09-07T01:38:50.363Z,88.73
2022-09-07T01:41:30.351Z,88.31
2022-09-07T01:44:08.164Z,88.53
2022-09-07T01:46:46.983Z,88.61
2022-09-07T01:49:24.242Z,88.11
2022-09-07T01:52:01.980Z,88.04
2022-09-07T01:54:38.255Z,88.29
2022-09-07T01:57:14.166Z,88.17
2022-09-07T01:59:50.261Z,88.27
2022-09-07T02:02:24.666Z,87.92
2022-09-07T02:05:01.511Z,87.58
2022-09-07T02:07:37.843Z,87.64
2022-09-07T02:10:13.408Z,87.84
2022-09-07T02:12:48.698Z,87.77
2022-09-07T02:15:28.828Z,87.82
2022-09-07T02:18:05.239Z,88.21
2022-09-07T02:20:39.031Z,88.17
2022-09-07T02:23:18.438Z,87.92
2022-09-07T02:25:55.213Z,87.60
2022-09-07T02:28:29.707Z,87.52
2022-09-07T02:31:00.240Z,87.69
2022-09-07T02:33:29.347Z,87.55
2022-09-07T02:35:58.670Z,87.49
2022-09-07T02:38:27.307Z,87.28
2022-09-07T02:40:58.855Z,87.60
2022-09-07T02:43:28.952Z,87.35
2022-09-07T02:46:23.733Z,86.99
2022-09-07T02:49:07.095Z,87.08
2022-09-07T02:51:46.592Z,86.73
2022-09-07T02:54:36.392Z,86.71
2022-09-07T02:57:18.862Z,86.43
2022-09-07T03:00:02.564Z,85.58
2022-09-07T03:02:44.222Z,85.04
2022-09-07T03:05:21.366Z,84.37
2022-09-07T03:07:59.709Z,84.00
2022-09-07T03:10:29.709Z,83.84
2022-09-07T03:12:58.020Z,83.66
2022-09-07T03:15:28.628Z,83.74
2022-09-07T03:17:58.304Z,83.92
2022-09-07T03:20:26.535Z,83.33
2022-09-07T03:22:54.637Z,83.06
2022-09-07T03:25:24.023Z,81.77
2022-09-07T03:27:52.309Z,81.40
2022-09-07T03:30:20.841Z,81.68
2022-09-07T03:32:48.988Z,82.07
2022-09-07T03:35:19.359Z,82.19
2022-09-07T03:37:47.441Z,82.27
2022-09-07T03:40:17.397Z,82.00
2022-09-07T03:42:49.288Z,82.44
2022-09-07T03:45:18.437Z,82.11
2022-09-07T03:47:46.799Z,82.07
2022-09-07T03:50:14.891Z,82.08
2022-09-07T03:52:44.349Z,82.05
2022-09-07T03:55:12.680Z,81.59
2022-09-07T03:57:41.045Z,82.07
2022-09-07T04:00:10.841Z,82.32
2022-09-07T04:02:39.015Z,82.43
2022-09-07T04:05:08.127Z,82.05
2022-09-07T04:07:36.306Z,81.85
2022-09-07T04:10:06.340Z,81.66
2022-09-07T04:12:34.519Z,81.50
2022-09-07T04:15:02.643Z,81.48
2022-09-07T04:17:30.735Z,81.70
2022-09-07T04:19:58.824Z,81.75
2022-09-07T04:22:26.933Z,81.74
2022-09-07T04:24:55.041Z,81.26
2022-09-07T04:27:24.455Z,81.22
2022-09-07T04:29:52.587Z,81.21
2022-09-07T04:32:20.671Z,80.60
2022-09-07T04:34:48.870Z,80.32
2022-09-07T04:37:17.085Z,80.25
2022-09-07T04:39:45.203Z,80.09
2022-09-07T04:42:13.368Z,79.70
2022-09-07T04:44:42.844Z,79.59
2022-09-07T04:47:11.111Z,80.15
2022-09-07T04:49:39.214Z,80.08
2022-09-07T04:52:07.448Z,79.72
2022-09-07T04:54:35.536Z,79.45
2022-09-07T04:57:03.653Z,78.89
2022-09-07T04:59:31.884Z,78.83
2022-09-07T05:02:01.407Z,79.21
2022-09-07T05:04:29.625Z,79.72
2022-09-07T05:06:57.765Z,79.49
2022-09-07T05:09:25.869Z,79.79
2022-09-07T05:11:54.548Z,78.74
2022-09-07T05:14:22.648Z,78.43
2022-09-07T05:16:50.908Z,78.21
2022-09-07T05:19:20.391Z,78.18
2022-09-07T05:21:48.529Z,77.67
2022-09-07T05:24:16.701Z,77.58
2022-09-07T05:26:44.945Z,76.60
2022-09-07T05:32:01.532Z,77.12
2022-09-07T05:34:31.750Z,77.64
2022-09-07T05:37:01.360Z,76.65
2022-09-07T05:39:30.129Z,76.22
2022-09-07T05:41:58.395Z,76.32
2022-09-07T05:47:10.480Z,74.65
2022-09-07T05:49:40.308Z,74.76
2022-09-07T05:52:08.640Z,74.87
2022-09-07T05:54:36.809Z,74.59
2022-09-07T05:57:06.316Z,74.41
2022-09-07T05:59:35.121Z,73.89
2022-09-07T06:02:03.320Z,73.20
2022-09-07T06:04:31.572Z,72.68
2022-09-07T06:12:37.264Z,71.08
2022-09-07T06:15:06.322Z,69.45
2022-09-07T06:17:34.468Z,69.44
2022-09-07T06:20:03.244Z,68.88
2022-09-07T06:22:32.725Z,67.45
2022-09-07T06:25:00.853Z,66.79
2022-09-07T06:27:29.436Z,67.25
2022-09-07T06:29:58.017Z,67.10
2022-09-07T06:35:15.510Z,65.70
2022-09-07T06:37:45.543Z,64.55
2022-09-07T06:40:14.012Z,65.47
2022-09-07T06:42:42.338Z,65.18
2022-09-07T06:45:11.571Z,65.98
2022-09-07T06:47:40.714Z,64.85
2022-09-07T06:50:10.891Z,64.17
2022-09-07T06:55:29.390Z,63.67
2022-09-07T06:57:57.622Z,62.82
2022-09-07T07:00:25.900Z,62.48
2022-09-07T07:02:54.045Z,62.57
2022-09-07T07:05:22.179Z,62.13
2022-09-07T07:07:50.297Z,61.41
2022-09-07T07:10:23.702Z,60.53
2022-09-07T07:12:57.941Z,59.78
2022-09-07T07:15:29.356Z,59.32
2022-09-07T07:18:02.596Z,58.54
2022-09-07T07:20:37.839Z,58.75
2022-09-07T07:23:06.300Z,57.94
2022-09-07T07:25:36.208Z,57.57
2022-09-07T07:30:57.174Z,56.64
2022-09-07T07:33:25.930Z,55.77
2022-09-07T07:35:54.123Z,55.23
2022-09-07T07:44:01.176Z,53.65
2022-09-07T07:46:30.487Z,53.96
2022-09-07T07:48:59.138Z,52.80
2022-09-07T07:51:27.613Z,52.20
2022-09-07T07:53:56.146Z,51.65
2022-09-07T07:56:24.428Z,50.92
2022-09-07T07:58:52.733Z,50.44
2022-09-07T08:01:22.180Z,50.61
2022-09-07T08:03:50.871Z,50.66
2022-09-07T08:06:21.740Z,50.47
2022-09-07T08:08:49.876Z,50.87
2022-09-07T08:11:20.842Z,50.78
2022-09-07T08:13:51.002Z,50.08
2022-09-07T08:16:21.159Z,50.71
2022-09-07T08:18:49.275Z,50.77
2022-09-07T08:21:18.143Z,51.60
2022-09-07T08:23:46.243Z,51.83
2022-09-07T08:26:14.297Z,52.29
2022-09-07T08:28:45.524Z,53.27
2022-09-07T08:31:16.793Z,53.35
2022-09-07T08:33:46.557Z,54.20
2022-09-07T08:36:17.246Z,54.20
2022-09-07T08:38:45.651Z,54.35
2022-09-07T08:41:52.535Z,54.38
2022-09-07T08:44:26.828Z,54.43
2022-09-07T08:47:01.221Z,54.20
2022-09-07T08:49:43.930Z,53.99
2022-09-07T08:52:17.175Z,53.89
2022-09-07T08:54:54.939Z,53.51
2022-09-07T08:57:34.154Z,53.17
2022-09-07T09:00:08.823Z,53.03
2022-09-07T09:02:43.526Z,52.74
2022-09-07T09:05:29.035Z,51.22
2022-09-07T09:08:21.797Z,51.28
2022-09-07T09:11:02.536Z,52.28
2022-09-07T09:13:52.114Z,51.42
2022-09-07T09:16:34.935Z,51.66
2022-09-07T09:19:23.310Z,52.28
2022-09-07T09:22:08.578Z,51.41
2022-09-07T09:24:42.143Z,51.02
2022-09-07T09:27:10.932Z,50.79
2022-09-07T09:29:38.945Z,50.59
2022-09-07T09:32:33.997Z,49.93
2022-09-07T09:35:12.334Z,50.35
2022-09-07T09:37:44.135Z,49.37
2022-09-07T09:40:26.480Z,49.87
2022-09-07T09:43:07.757Z,50.26
2022-09-07T09:48:35.889Z,49.68
2022-09-07T09:54:07.094Z,49.62
2022-09-07T09:56:41.207Z,50.26
2022-09-07T10:05:38.637Z,48.76
2022-09-07T10:08:19.673Z,48.08
2022-09-07T10:11:02.734Z,48.41
2022-09-07T10:13:35.118Z,48.33
2022-09-07T10:16:07.540Z,48.32
2022-09-07T10:18:39.180Z,48.76
2022-09-07T10:21:23.670Z,48.63
2022-09-07T10:23:58.300Z,49.14
2022-09-07T10:26:33.036Z,48.84
2022-09-07T10:29:17.444Z,49.00
2022-09-07T10:32:06.836Z,49.76
2022-09-07T10:34:50.885Z,49.57
2022-09-07T10:37:32.032Z,50.05
2022-09-07T10:40:17.299Z,50.69
2022-09-07T10:46:56.188Z,49.98
2022-09-07T10:49:22.284Z,48.64
2022-09-07T10:52:05.380Z,48.67
2022-09-07T10:54:48.444Z,48.70
2022-09-07T10:57:39.303Z,47.38
2022-09-07T11:00:15.813Z,46.52
2022-09-07T11:03:25.313Z,46.42
2022-09-07T11:06:15.008Z,45.17
2022-09-07T11:09:16.338Z,45.52
2022-09-07T11:12:08.167Z,45.90
2022-09-07T11:14:44.551Z,46.21
2022-09-07T11:17:22.161Z,46.48
2022-09-07T11:20:04.079Z,45.39
2022-09-07T11:22:38.863Z,45.79
2022-09-07T11:25:35.342Z,45.52
2022-09-07T11:28:14.078Z,46.16
2022-09-07T11:30:49.944Z,45.72
2022-09-07T11:33:24.778Z,45.28
2022-09-07T11:36:00.973Z,44.55
2022-09-07T11:38:35.552Z,44.14
2022-09-07T11:41:22.162Z,44.74
2022-09-07T11:44:01.774Z,46.50
2022-09-07T11:46:41.698Z,46.50
2022-09-07T11:49:21.064Z,46.93
2022-09-07T11:51:56.924Z,47.18
2022-09-07T11:54:42.337Z,47.88
2022-09-07T11:58:01.037Z,47.32
2022-09-07T12:00:45.244Z,47.71
2022-09-07T12:03:50.853Z,47.82
2022-09-07T12:06:54.898Z,47.49
2022-09-07T12:09:51.513Z,47.91
2022-09-07T12:12:56.596Z,46.97
2022-09-07T12:15:44.535Z,47.23
2022-09-07T12:18:33.331Z,46.60
2022-09-07T12:21:01.484Z,46.98
2022-09-07T12:23:32.848Z,45.98
2022-09-07T12:26:57.892Z,44.40
2022-09-07T12:29:28.970Z,43.52
2022-09-07T12:32:07.390Z,41.35
2022-09-07T12:34:57.884Z,40.86
2022-09-07T12:37:43.967Z,41.67
2022-09-07T12:40:59.723Z,41.60
2022-09-07T12:43:54.255Z,42.46
2022-09-07T12:46:52.957Z,42.52
2022-09-07T12:50:05.846Z,42.66
2022-09-07T12:52:51.035Z,42.92
2022-09-07T12:56:28.542Z,43.30
2022-09-07T12:59:31.388Z,43.52
2022-09-07T13:02:18.168Z,43.29
2022-09-07T13:05:01.572Z,43.47
2022-09-07T13:08:15.796Z,43.50
2022-09-07T13:10:46.400Z,43.45
2022-09-07T13:17:16.138Z,43.55
2022-09-07T13:20:08.322Z,42.86
2022-09-07T13:22:56.157Z,42.83
2022-09-07T13:25:46.515Z,42.92
2022-09-07T13:28:30.189Z,42.61
2022-09-07T13:31:43.371Z,42.98
2022-09-07T13:34:50.975Z,42.29
2022-09-07T13:37:24.039Z,42.23
2022-09-07T13:39:56.567Z,41.77
2022-09-07T13:42:30.134Z,42.63
2022-09-07T13:45:02.089Z,42.64
2022-09-07T13:47:47.716Z,42.82
2022-09-07T13:50:38.165Z,42.00
2022-09-07T13:53:36.653Z,41.49
2022-09-07T13:56:22.236Z,41.84
2022-09-07T13:58:53.980Z,41.93
2022-09-07T14:01:27.149Z,41.94
2022-09-07T14:03:59.498Z,41.79
2022-09-07T14:06:36.188Z,42.00
2022-09-07T14:09:14.437Z,42.11
2022-09-07T14:11:45.820Z,42.25
2022-09-07T14:14:21.239Z,42.51
2022-09-07T14:16:57.699Z,42.73
2022-09-07T14:19:37.407Z,42.87
2022-09-07T14:22:12.108Z,42.66
2022-09-07T14:24:44.528Z,43.09
2022-09-07T14:27:25.340Z,42.56
2022-09-07T14:29:53.682Z,42.51
2022-09-07T14:32:27.188Z,41.85
2022-09-07T14:34:55.648Z,41.74
2022-09-07T14:37:24.641Z,41.92
2022-09-07T14:39:53.670Z,41.90
2022-09-07T14:42:24.899Z,41.36
2022-09-07T14:45:32.085Z,41.04
2022-09-07T14:48:00.165Z,41.18
2022-09-07T14:50:33.987Z,41.73
2022-09-07T14:56:03.438Z,41.90
2022-09-07T14:58:33.195Z,42.56
2022-09-07T15:01:37.547Z,43.04
2022-09-07T15:04:19.375Z,43.09
2022-09-07T15:07:03.261Z,42.90
2022-09-07T15:09:38.254Z,43.16
2022-09-07T15:12:24.903Z,43.17
2022-09-07T15:15:12.182Z,43.25
2022-09-07T15:17:43.378Z,43.39
2022-09-07T15:20:36.153Z,43.76
2022-09-07T15:23:07.098Z,43.72
2022-09-07T15:25:36.645Z,43.68
2022-09-07T15:28:05.754Z,44.04
2022-09-07T15:30:34.812Z,44.24
2022-09-07T15:33:04.306Z,44.79
2022-09-07T15:35:32.324Z,45.19
2022-09-07T15:38:05.226Z,45.75
2022-09-07T15:41:20.831Z,46.19
2022-09-07T15:43:40.472Z,46.22
2022-09-07T15:46:09.870Z,46.07
2022-09-07T15:48:39.423Z,46.24
2022-09-07T15:54:13.672Z,46.96
2022-09-07T15:56:44.036Z,46.71
2022-09-07T15:59:31.194Z,46.98
2022-09-07T16:01:59.561Z,47.12
2022-09-07T16:04:29.510Z,46.84
2022-09-07T16:06:58.023Z,46.79
2022-09-07T16:09:26.810Z,46.49
2022-09-07T16:11:54.902Z,46.36
2022-09-07T16:14:23.027Z,45.92
2022-09-07T16:19:41.379Z,45.64
2022-09-07T16:22:09.643Z,45.61
2022-09-07T16:24:38.314Z,45.67
2022-09-07T16:27:06.688Z,45.83
2022-09-07T16:29:36.369Z,46.67
2022-09-07T16:34:54.226Z,46.92
2022-09-07T16:37:22.215Z,47.00
2022-09-07T16:39:51.499Z,47.19
2022-09-07T16:42:19.979Z,47.00
2022-09-07T16:44:48.000Z,46.88
2022-09-07T16:47:16.069Z,47.11
2022-09-07T16:49:44.066Z,47.45
2022-09-07T16:52:13.417Z,47.71
2022-09-07T16:54:41.425Z,47.96
2022-09-07T16:57:09.363Z,48.34
2022-09-07T16:59:37.322Z,48.67
2022-09-07T17:02:05.269Z,49.10
2022-09-07T17:04:33.304Z,49.45
2022-09-07T17:07:01.369Z,49.78
2022-09-07T17:09:30.703Z,50.11
2022-09-07T17:11:58.685Z,50.57
2022-09-07T17:14:28.230Z,50.80
2022-09-07T17:16:56.323Z,50.96
2022-09-07T17:19:31.804Z,51.90
2022-09-07T17:22:00.665Z,51.97
2022-09-07T17:24:32.167Z,52.25
2022-09-07T17:27:00.849Z,52.73
2022-09-07T17:29:30.502Z,52.77
2022-09-07T17:34:47.224Z,53.51
2022-09-07T17:37:15.223Z,53.72
2022-09-07T17:39:44.771Z,54.00
2022-09-07T17:42:13.316Z,54.64
2022-09-07T17:44:41.364Z,55.30
2022-09-07T17:47:09.991Z,55.59
2022-09-07T17:49:38.050Z,56.09
2022-09-07T17:52:06.337Z,56.56
2022-09-07T17:54:34.236Z,56.96
2022-09-07T17:57:03.921Z,57.24
2022-09-07T18:02:20.277Z,58.23
2022-09-07T18:04:49.121Z,58.63
2022-09-07T18:07:17.216Z,58.94
2022-09-07T18:09:45.129Z,59.37
2022-09-07T18:12:14.431Z,59.37
2022-09-07T18:14:43.559Z,59.86
2022-09-07T18:17:11.785Z,60.03
2022-09-07T18:19:39.730Z,59.97
2022-09-07T18:22:08.637Z,60.11
2022-09-07T18:24:37.160Z,60.22
2022-09-07T18:27:06.346Z,60.50
2022-09-07T18:29:35.637Z,60.78
2022-09-07T18:32:08.557Z,60.61
2022-09-07T18:34:38.105Z,61.22
2022-09-07T18:37:06.947Z,61.37
2022-09-07T18:39:35.529Z,61.48
2022-09-07T18:42:03.835Z,61.81
2022-09-07T18:47:28.736Z,62.00
2022-09-07T18:49:58.457Z,61.43
2022-09-07T18:55:16.148Z,58.42
2022-09-07T18:57:44.943Z,57.36
2022-09-07T19:00:14.748Z,57.06
2022-09-07T19:02:44.136Z,57.02
2022-09-07T19:08:03.234Z,56.51
2022-09-07T19:10:35.789Z,57.32
2022-09-07T19:13:04.021Z,57.75
2022-09-07T19:15:37.395Z,58.53
2022-09-07T19:18:08.681Z,59.17
2022-09-07T19:20:37.617Z,60.28
2022-09-07T19:23:06.465Z,60.79
2022-09-07T19:25:34.597Z,60.69
2022-09-07T19:28:02.749Z,60.61
2022-09-07T19:30:30.832Z,60.30
2022-09-07T19:33:03.938Z,60.96
2022-09-07T19:35:37.329Z,61.77
2022-09-07T19:38:05.872Z,62.72
2022-09-07T19:40:34.189Z,62.93
2022-09-07T19:43:02.449Z,63.19
2022-09-07T19:45:30.516Z,62.88
2022-09-07T19:47:58.794Z,62.54
2022-09-07T19:50:26.857Z,62.32
2022-09-07T19:52:56.255Z,62.54
2022-09-07T19:55:24.302Z,61.74
2022-09-07T19:57:52.470Z,59.51
2022-09-07T20:00:20.646Z,58.20
2022-09-07T20:02:49.971Z,58.32
2022-09-07T20:05:19.154Z,59.14
2022-09-07T20:07:47.327Z,59.29
2022-09-07T20:10:17.509Z,59.98
2022-09-07T20:12:45.612Z,60.43
2022-09-07T20:15:13.662Z,61.14
2022-09-07T20:17:41.714Z,61.14
2022-09-07T20:20:10.936Z,61.71
2022-09-07T20:22:39.079Z,61.89
2022-09-07T20:25:12.506Z,62.16
2022-09-07T20:27:42.782Z,62.63
2022-09-07T20:30:12.539Z,63.54
2022-09-07T20:32:40.685Z,64.46
2022-09-07T20:35:09.616Z,64.85
2022-09-07T20:37:37.778Z,65.76
2022-09-07T20:40:07.586Z,66.30
2022-09-07T20:42:35.796Z,67.09
2022-09-07T20:45:06.163Z,67.57
2022-09-07T20:47:34.374Z,68.10
2022-09-07T20:50:02.404Z,68.44
2022-09-07T20:52:30.429Z,68.78
2022-09-07T20:54:58.436Z,69.26
2022-09-07T20:57:26.435Z,69.73
2022-09-07T20:59:54.522Z,69.91
2022-09-07T21:02:23.951Z,70.48
2022-09-07T21:04:52.214Z,70.88
2022-09-07T21:07:20.339Z,71.09
2022-09-07T21:09:48.381Z,70.91
2022-09-07T21:12:16.694Z,71.25
2022-09-07T21:14:46.017Z,71.71
2022-09-07T21:17:14.055Z,71.82
2022-09-07T21:19:43.342Z,71.70
2022-09-07T21:22:11.344Z,71.76
2022-09-07T21:24:39.410Z,72.06
2022-09-07T21:27:07.865Z,71.99
2022-09-07T21:29:35.868Z,71.84
2022-09-07T21:32:04.616Z,71.99
2022-09-07T21:34:32.635Z,72.12
2022-09-07T21:37:01.990Z,72.01
2022-09-07T21:39:30.084Z,71.85
2022-09-07T21:41:58.177Z,72.15
2022-09-07T21:44:26.236Z,72.25
2022-09-07T21:46:54.308Z,72.45
2022-09-07T21:49:22.389Z,72.11
2022-09-07T21:51:51.315Z,72.26
2022-09-07T21:54:20.764Z,72.94
2022-09-07T21:56:49.191Z,72.94
2022-09-07T21:59:17.192Z,73.25
2022-09-07T22:01:45.403Z,73.20
2022-09-07T22:04:13.515Z,73.58
2022-09-07T22:06:43.781Z,73.72
2022-09-07T22:09:11.764Z,73.55
2022-09-07T22:11:44.145Z,73.73
2022-09-07T22:14:15.668Z,73.92
2022-09-07T22:16:43.704Z,73.87
2022-09-07T22:19:11.825Z,73.52
2022-09-07T22:21:39.940Z,74.10
2022-09-07T22:24:08.967Z,73.52
2022-09-07T22:26:40.034Z,73.73
2022-09-07T22:29:11.913Z,74.00
2022-09-07T22:31:41.488Z,74.38
2022-09-07T22:34:10.478Z,74.88
2022-09-07T22:36:41.067Z,75.42
2022-09-07T22:39:13.865Z,75.49
2022-09-07T22:41:45.188Z,75.21
2022-09-07T22:44:17.824Z,75.50
2022-09-07T22:46:48.098Z,75.95
2022-09-07T22:49:18.229Z,76.23
2022-09-07T22:51:47.439Z,76.10
2022-09-07T22:54:15.919Z,75.72
2022-09-07T22:56:45.267Z,75.94
2022-09-07T22:59:14.253Z,76.33
2022-09-07T23:01:42.820Z,76.40
2022-09-07T23:04:12.880Z,76.44
2022-09-07T23:06:43.679Z,76.01
2022-09-07T23:09:14.258Z,75.50
2022-09-07T23:11:43.195Z,75.52
2022-09-07T23:14:17.114Z,75.36
2022-09-07T23:16:45.982Z,74.92
2022-09-07T23:19:16.498Z,74.46
2022-09-07T23:21:45.337Z,74.84
2022-09-07T23:24:15.786Z,75.15
2022-09-07T23:26:44.662Z,75.58
2022-09-07T23:29:15.869Z,75.91
2022-09-07T23:31:46.365Z,75.99
2022-09-07T23:34:14.443Z,75.89
2022-09-07T23:36:42.432Z,75.98
2022-09-07T23:39:10.975Z,76.12
2022-09-07T23:41:38.993Z,75.88
2022-09-07T23:44:07.133Z,75.81
2022-09-07T23:46:36.516Z,75.29
2022-09-07T23:49:04.708Z,74.69
2022-09-07T23:51:32.676Z,74.72
2022-09-07T23:54:00.829Z,75.26
2022-09-07T23:56:29.205Z,75.67
2022-09-07T23:58:57.228Z,75.63
